sensor_id;sensor_type;location;lat;lon;timestamp;P1;durP1;ratioP1;P2;durP2;ratioP2
39308;SDS011;26019;47.510;19.122;2024-03-07T00:04:32;15.00;;;9.13;;
39308;SDS011;26019;47.510;19.122;2024-03-07T00:14:34;14.25;;;9.18;;
39308;SDS011;26019;47.510;19.122;2024-03-07T00:24:37;15.02;;;8.43;;
39308;SDS011;26019;47.510;19.122;2024-03-07T00:34:39;13.50;;;8.27;;
39308;SDS011;26019;47.510;19.122;2024-03-07T00:44:42;15.25;;;7.95;;
39308;SDS011;26019;47.510;19.122;2024-03-07T01:04:46;14.15;;;8.55;;
39308;SDS011;26019;47.510;19.122;2024-03-07T01:14:48;14.32;;;8.50;;
39308;SDS011;26019;47.510;19.122;2024-03-07T01:24:53;13.38;;;7.50;;
39308;SDS011;26019;47.510;19.122;2024-03-07T01:34:55;10.18;;;7.22;;
39308;SDS011;26019;47.510;19.122;2024-03-07T01:44:57;12.38;;;6.95;;
39308;SDS011;26019;47.510;19.122;2024-03-07T01:54:59;12.32;;;7.20;;
39308;SDS011;26019;47.510;19.122;2024-03-07T02:05:02;11.53;;;8.00;;
39308;SDS011;26019;47.510;19.122;2024-03-07T02:15:04;11.95;;;6.82;;
39308;SDS011;26019;47.510;19.122;2024-03-07T02:25:07;11.90;;;6.68;;
39308;SDS011;26019;47.510;19.122;2024-03-07T02:35:12;11.02;;;6.75;;
39308;SDS011;26019;47.510;19.122;2024-03-07T02:45:17;10.27;;;6.47;;
39308;SDS011;26019;47.510;19.122;2024-03-07T02:55:19;8.85;;;5.78;;
39308;SDS011;26019;47.510;19.122;2024-03-07T03:05:20;9.98;;;5.60;;
39308;SDS011;26019;47.510;19.122;2024-03-07T03:25:26;7.95;;;5.40;;
39308;SDS011;26019;47.510;19.122;2024-03-07T03:35:27;7.25;;;4.68;;
39308;SDS011;26019;47.510;19.122;2024-03-07T03:45:30;7.70;;;5.20;;
39308;SDS011;26019;47.510;19.122;2024-03-07T03:55:36;7.10;;;4.53;;
39308;SDS011;26019;47.510;19.122;2024-03-07T04:05:40;5.20;;;4.13;;
39308;SDS011;26019;47.510;19.122;2024-03-07T04:15:43;6.70;;;4.50;;
39308;SDS011;26019;47.510;19.122;2024-03-07T04:25:45;7.10;;;4.73;;
39308;SDS011;26019;47.510;19.122;2024-03-07T04:35:47;6.95;;;4.65;;
39308;SDS011;26019;47.510;19.122;2024-03-07T04:45:49;5.65;;;4.15;;
39308;SDS011;26019;47.510;19.122;2024-03-07T04:55:51;7.78;;;5.07;;
39308;SDS011;26019;47.510;19.122;2024-03-07T05:05:53;7.70;;;5.40;;
39308;SDS011;26019;47.510;19.122;2024-03-07T05:15:55;7.28;;;5.18;;
39308;SDS011;26019;47.510;19.122;2024-03-07T05:25:56;12.63;;;5.97;;
39308;SDS011;26019;47.510;19.122;2024-03-07T05:35:59;8.23;;;5.22;;
39308;SDS011;26019;47.510;19.122;2024-03-07T05:46:15;9.00;;;5.97;;
39308;SDS011;26019;47.510;19.122;2024-03-07T05:56:17;9.77;;;5.30;;
39308;SDS011;26019;47.510;19.122;2024-03-07T06:06:20;7.07;;;4.95;;
39308;SDS011;26019;47.510;19.122;2024-03-07T06:26:34;9.82;;;5.00;;
39308;SDS011;26019;47.510;19.122;2024-03-07T06:36:57;7.18;;;4.00;;
39308;SDS011;26019;47.510;19.122;2024-03-07T06:47:02;6.70;;;4.30;;
39308;SDS011;26019;47.510;19.122;2024-03-07T06:57:06;6.78;;;3.85;;
39308;SDS011;26019;47.510;19.122;2024-03-07T07:07:10;12.43;;;4.38;;
39308;SDS011;26019;47.510;19.122;2024-03-07T07:17:14;7.40;;;4.78;;
39308;SDS011;26019;47.510;19.122;2024-03-07T07:27:16;8.63;;;3.95;;
39308;SDS011;26019;47.510;19.122;2024-03-07T07:37:21;4.28;;;3.33;;
39308;SDS011;26019;47.510;19.122;2024-03-07T07:47:22;5.60;;;3.47;;
39308;SDS011;26019;47.510;19.122;2024-03-07T07:57:24;3.75;;;3.05;;
39308;SDS011;26019;47.510;19.122;2024-03-07T08:07:26;5.45;;;3.50;;
39308;SDS011;26019;47.510;19.122;2024-03-07T08:17:31;5.10;;;3.53;;
39308;SDS011;26019;47.510;19.122;2024-03-07T08:27:34;4.63;;;3.38;;
39308;SDS011;26019;47.510;19.122;2024-03-07T08:37:40;5.47;;;3.58;;
39308;SDS011;26019;47.510;19.122;2024-03-07T08:47:43;3.55;;;3.10;;
39308;SDS011;26019;47.510;19.122;2024-03-07T08:57:45;4.30;;;3.20;;
39308;SDS011;26019;47.510;19.122;2024-03-07T09:07:50;4.20;;;3.28;;
39308;SDS011;26019;47.510;19.122;2024-03-07T09:17:53;6.82;;;4.03;;
39308;SDS011;26019;47.510;19.122;2024-03-07T09:27:55;6.53;;;4.03;;
39308;SDS011;26019;47.510;19.122;2024-03-07T09:37:57;4.47;;;3.60;;
39308;SDS011;26019;47.510;19.122;2024-03-07T09:48:00;6.00;;;3.72;;
39308;SDS011;26019;47.510;19.122;2024-03-07T09:58:03;9.07;;;3.75;;
39308;SDS011;26019;47.510;19.122;2024-03-07T10:08:08;5.32;;;4.10;;
39308;SDS011;26019;47.510;19.122;2024-03-07T10:18:11;5.18;;;4.30;;
39308;SDS011;26019;47.510;19.122;2024-03-07T10:28:16;6.32;;;4.47;;
39308;SDS011;26019;47.510;19.122;2024-03-07T10:38:19;5.97;;;4.47;;
39308;SDS011;26019;47.510;19.122;2024-03-07T10:48:21;5.95;;;4.68;;
39308;SDS011;26019;47.510;19.122;2024-03-07T11:08:36;7.03;;;4.75;;
39308;SDS011;26019;47.510;19.122;2024-03-07T11:18:39;6.80;;;4.77;;
39308;SDS011;26019;47.510;19.122;2024-03-07T11:28:42;6.53;;;5.27;;
39308;SDS011;26019;47.510;19.122;2024-03-07T11:38:49;8.88;;;6.00;;
39308;SDS011;26019;47.510;19.122;2024-03-07T11:48:53;17.08;;;8.48;;
39308;SDS011;26019;47.510;19.122;2024-03-07T11:59:01;7.45;;;5.72;;
39308;SDS011;26019;47.510;19.122;2024-03-07T12:09:04;8.65;;;5.65;;
39308;SDS011;26019;47.510;19.122;2024-03-07T12:19:08;9.15;;;5.50;;
39308;SDS011;26019;47.510;19.122;2024-03-07T12:29:11;7.63;;;6.13;;
39308;SDS011;26019;47.510;19.122;2024-03-07T12:39:23;8.18;;;5.10;;
39308;SDS011;26019;47.510;19.122;2024-03-07T12:49:26;7.60;;;5.73;;
39308;SDS011;26019;47.510;19.122;2024-03-07T12:59:28;8.57;;;6.22;;
39308;SDS011;26019;47.510;19.122;2024-03-07T13:09:31;10.30;;;6.20;;
39308;SDS011;26019;47.510;19.122;2024-03-07T13:19:33;8.63;;;5.63;;
39308;SDS011;26019;47.510;19.122;2024-03-07T13:29:36;8.30;;;5.30;;
39308;SDS011;26019;47.510;19.122;2024-03-07T13:39:37;12.07;;;6.68;;
39308;SDS011;26019;47.510;19.122;2024-03-07T13:49:39;9.60;;;6.50;;
39308;SDS011;26019;47.510;19.122;2024-03-07T13:59:54;11.05;;;6.15;;
39308;SDS011;26019;47.510;19.122;2024-03-07T14:10:40;8.73;;;5.90;;
39308;SDS011;26019;47.510;19.122;2024-03-07T14:31:24;7.85;;;5.93;;
39308;SDS011;26019;47.510;19.122;2024-03-07T14:52:01;8.98;;;5.70;;
39308;SDS011;26019;47.510;19.122;2024-03-07T15:02:04;8.32;;;5.78;;
39308;SDS011;26019;47.510;19.122;2024-03-07T15:12:12;10.60;;;6.57;;
39308;SDS011;26019;47.510;19.122;2024-03-07T15:32:21;9.45;;;5.78;;
39308;SDS011;26019;47.510;19.122;2024-03-07T15:42:23;9.25;;;6.35;;
39308;SDS011;26019;47.510;19.122;2024-03-07T15:52:26;9.60;;;6.47;;
39308;SDS011;26019;47.510;19.122;2024-03-07T16:02:28;7.97;;;6.10;;
39308;SDS011;26019;47.510;19.122;2024-03-07T16:12:30;9.77;;;5.97;;
39308;SDS011;26019;47.510;19.122;2024-03-07T16:22:35;8.43;;;6.15;;
39308;SDS011;26019;47.510;19.122;2024-03-07T16:32:37;13.50;;;7.23;;
39308;SDS011;26019;47.510;19.122;2024-03-07T16:42:42;9.63;;;6.90;;
39308;SDS011;26019;47.510;19.122;2024-03-07T16:52:52;11.27;;;6.47;;
39308;SDS011;26019;47.510;19.122;2024-03-07T17:02:56;12.50;;;6.80;;
39308;SDS011;26019;47.510;19.122;2024-03-07T17:13:03;10.10;;;7.00;;
39308;SDS011;26019;47.510;19.122;2024-03-07T17:23:11;14.20;;;6.90;;
39308;SDS011;26019;47.510;19.122;2024-03-07T17:33:15;9.83;;;6.73;;
39308;SDS011;26019;47.510;19.122;2024-03-07T17:43:18;12.07;;;7.32;;
39308;SDS011;26019;47.510;19.122;2024-03-07T17:53:21;10.73;;;7.50;;
39308;SDS011;26019;47.510;19.122;2024-03-07T18:03:23;12.13;;;8.05;;
39308;SDS011;26019;47.510;19.122;2024-03-07T18:13:25;11.30;;;8.20;;
39308;SDS011;26019;47.510;19.122;2024-03-07T18:23:27;10.77;;;7.45;;
39308;SDS011;26019;47.510;19.122;2024-03-07T18:33:30;10.73;;;7.37;;
39308;SDS011;26019;47.510;19.122;2024-03-07T18:43:33;10.70;;;7.47;;
39308;SDS011;26019;47.510;19.122;2024-03-07T18:53:35;14.43;;;8.23;;
39308;SDS011;26019;47.510;19.122;2024-03-07T19:03:38;10.07;;;6.87;;
39308;SDS011;26019;47.510;19.122;2024-03-07T19:23:43;11.13;;;6.68;;
39308;SDS011;26019;47.510;19.122;2024-03-07T19:33:48;14.27;;;7.90;;
39308;SDS011;26019;47.510;19.122;2024-03-07T19:43:53;15.70;;;8.30;;
39308;SDS011;26019;47.510;19.122;2024-03-07T19:53:55;17.40;;;9.65;;
39308;SDS011;26019;47.510;19.122;2024-03-07T20:04:00;13.80;;;7.97;;
39308;SDS011;26019;47.510;19.122;2024-03-07T20:14:03;14.30;;;7.90;;
39308;SDS011;26019;47.510;19.122;2024-03-07T20:24:07;14.47;;;8.43;;
39308;SDS011;26019;47.510;19.122;2024-03-07T20:34:10;12.93;;;8.23;;
39308;SDS011;26019;47.510;19.122;2024-03-07T20:44:14;15.02;;;9.15;;
39308;SDS011;26019;47.510;19.122;2024-03-07T20:54:17;13.68;;;9.43;;
39308;SDS011;26019;47.510;19.122;2024-03-07T21:04:21;15.95;;;9.43;;
39308;SDS011;26019;47.510;19.122;2024-03-07T21:14:31;13.38;;;8.70;;
39308;SDS011;26019;47.510;19.122;2024-03-07T21:24:36;13.23;;;8.30;;
39308;SDS011;26019;47.510;19.122;2024-03-07T21:34:43;17.02;;;10.00;;
39308;SDS011;26019;47.510;19.122;2024-03-07T21:44:45;16.92;;;9.40;;
39308;SDS011;26019;47.510;19.122;2024-03-07T21:54:47;12.27;;;8.40;;
39308;SDS011;26019;47.510;19.122;2024-03-07T22:04:49;14.90;;;9.52;;
39308;SDS011;26019;47.510;19.122;2024-03-07T22:15:00;14.88;;;9.90;;
39308;SDS011;26019;47.510;19.122;2024-03-07T22:25:03;16.17;;;10.13;;
39308;SDS011;26019;47.510;19.122;2024-03-07T22:35:07;16.02;;;9.57;;
39308;SDS011;26019;47.510;19.122;2024-03-07T22:45:12;16.52;;;10.07;;
39308;SDS011;26019;47.510;19.122;2024-03-07T22:55:23;20.90;;;11.63;;
39308;SDS011;26019;47.510;19.122;2024-03-07T23:05:25;18.80;;;10.68;;
39308;SDS011;26019;47.510;19.122;2024-03-07T23:15:30;16.45;;;11.75;;
39308;SDS011;26019;47.510;19.122;2024-03-07T23:25:34;20.45;;;11.70;;
39308;SDS011;26019;47.510;19.122;2024-03-07T23:35:36;18.05;;;11.45;;
39308;SDS011;26019;47.510;19.122;2024-03-07T23:45:40;18.55;;;11.85;;
39308;SDS011;26019;47.510;19.122;2024-03-07T23:55:42;22.83;;;12.70;;
